Time;durP1;ratioP1;P1;durP2;ratioP2;P2;SDS_P1;SDS_P2;PMS_P1;PMS_P2;Temp;Humidity;BMP_temperature;BMP_pressure;BME280_temperature;BME280_humidity;BME280_pressure;Samples;Min_cycle;Max_cycle;Signal;HPM_P1;HPM_P2
2023/05/29 00:01:59;;;;;;;4.00;3.60;;;;;;;17.20;40.79;99879.08;104456;1260;73299;-58
2023/05/29 00:04:26;;;;;;;;;;;;;;;17.18;40.62;99875.51;104327;1268;60897;-58
2023/05/29 00:06:55;;;;;;;4.50;3.40;;;;;;;17.14;41.33;99875.88;104350;1253;60552;-58
2023/05/29 00:09:23;;;;;;;4.20;3.80;;;;;;;17.08;41.17;99875.60;104501;1257;74035;-58
2023/05/29 00:11:52;;;;;;;5.80;3.90;;;;;;;17.04;41.38;99870.90;104328;1259;69642;-58
2023/05/29 00:14:20;;;;;;;3.50;3.20;;;;;;;17.06;41.14;99873.39;104317;1257;72491;-57
2023/05/29 00:16:48;;;;;;;3.60;3.20;;;;;;;17.08;40.90;99874.01;104351;1256;60762;-58
2023/05/29 00:19:19;;;;;;;6.30;3.70;;;;;;;17.08;41.31;99878.76;104319;1256;60549;-57
2023/05/29 00:21:48;;;;;;;3.80;3.40;;;;;;;17.09;41.27;99877.64;104320;1270;74450;-57
2023/05/29 00:24:16;;;;;;;4.00;3.70;;;;;;;17.09;41.24;99878.88;104402;1256;69228;-59
2023/05/29 00:26:44;;;;;;;4.30;3.40;;;;;;;17.07;40.85;99874.95;107410;1253;71485;-59
2023/05/29 00:29:13;;;;;;;;;;;;;;;17.09;40.70;99877.50;105941;1251;60929;-58
2023/05/29 00:31:40;;;;;;;4.00;3.20;;;;;;;17.11;41.53;99872.73;108522;1251;59135;-59
2023/05/29 00:34:08;;;;;;;3.30;2.90;;;;;;;17.06;41.37;99868.81;105012;1257;74288;-58
2023/05/29 00:36:36;;;;;;;5.10;3.30;;;;;;;17.03;41.69;99869.88;104771;1256;69121;-58
2023/05/29 00:39:04;;;;;;;5.50;3.10;;;;;;;17.04;41.48;99868.56;104551;1256;72510;-58
2023/05/29 00:41:32;;;;;;;4.00;3.40;;;;;;;17.04;41.74;99867.90;104828;1261;60527;-58
2023/05/29 00:43:59;;;;;;;3.90;3.40;;;;;;;17.01;41.40;99864.02;104874;1253;60626;-58
2023/05/29 00:46:27;;;;;;;4.30;3.60;;;;;;;16.98;41.79;99863.69;104308;1257;73716;-58
2023/05/29 00:48:55;;;;;;;;;;;;;;;16.95;41.15;99861.41;104431;1257;69280;-58
2023/05/29 00:51:23;;;;;;;3.60;3.30;;;;;;;16.95;41.64;99861.08;104228;1261;73004;-58
2023/05/29 00:53:51;;;;;;;3.30;3.00;;;;;;;16.88;41.59;99862.90;104430;1260;60542;-57
2023/05/29 00:56:20;;;;;;;3.60;3.20;;;;;;;16.85;41.28;99863.66;104278;1257;60601;-58
2023/05/29 00:58:49;;;;;;;3.70;3.10;;;;;;;16.82;41.23;99865.59;104664;1260;73606;-58
2023/05/29 01:01:21;;;;;;;3.90;3.10;;;;;;;16.80;41.10;99872.26;104330;1257;68165;-58
2023/05/29 01:03:49;;;;;;;4.70;3.50;;;;;;;16.78;41.24;99868.88;104287;1276;72435;-58
2023/05/29 01:06:17;;;;;;;3.90;3.50;;;;;;;16.74;41.33;99876.88;104498;1254;60968;-58
2023/05/29 01:08:45;;;;;;;3.90;3.40;;;;;;;16.72;41.81;99878.77;104225;1264;60734;-58
2023/05/29 01:11:31;;;;;;;4.50;3.10;;;;;;;16.68;41.82;99880.80;104335;1258;75317;-58
2023/05/29 01:14:00;;;;;;;4.40;3.30;;;;;;;16.64;41.92;99882.52;104340;1256;69074;-58
2023/05/29 01:16:37;;;;;;;3.20;2.90;;;;;;;16.61;41.55;99886.38;104299;1261;73298;-58
2023/05/29 01:19:30;;;;;;;3.90;3.20;;;;;;;16.61;41.70;99881.65;104533;1254;61167;-58
2023/05/29 01:22:14;;;;;;;3.60;2.90;;;;;;;16.61;41.87;99878.11;104447;1257;60898;-58
2023/05/29 01:25:07;;;;;;;6.70;3.20;;;;;;;16.57;41.71;99882.22;104392;1255;73605;-58
2023/05/29 01:34:45;;;;;;;3.10;2.80;;;;;;;16.49;41.82;99890.89;104333;1259;60568;-59
2023/05/29 01:37:13;;;;;;;;;;;;;;;16.45;41.54;99893.60;104285;1255;60581;-59
2023/05/29 01:39:41;;;;;;;3.10;2.60;;;;;;;16.45;41.78;99895.34;104405;1254;72477;-59
2023/05/29 01:42:08;;;;;;;4.80;3.20;;;;;;;16.41;41.33;99891.90;104460;1266;69969;-58
2023/05/29 01:44:36;;;;;;;2.90;2.60;;;;;;;16.38;41.98;99891.39;104320;1258;72970;-59
2023/05/29 01:47:04;;;;;;;2.60;2.40;;;;;;;16.36;41.89;99892.95;104374;1257;60577;-59
2023/05/29 01:49:34;;;;;;;2.60;2.30;;;;;;;16.33;42.17;99894.90;108197;1254;59828;-58
2023/05/29 01:52:02;;;;;;;6.00;2.80;;;;;;;16.33;42.32;99893.10;105866;1258;75065;-60
2023/05/29 01:54:30;;;;;;;5.70;2.60;;;;;;;16.33;42.63;99893.10;104433;1259;69345;-57
2023/05/29 01:56:57;;;;;;;3.00;2.70;;;;;;;16.33;42.44;99893.63;104613;1260;73364;-57
2023/05/29 01:59:26;;;;;;;2.40;2.20;;;;;;;16.37;42.52;99891.65;104445;1261;60745;-59
2023/05/29 02:01:54;;;;;;;2.90;2.60;;;;;;;16.36;42.24;99896.98;104440;1257;60552;-58
2023/05/29 02:04:21;;;;;;;;;;;;;;;16.35;42.56;99899.91;104339;1270;72609;-58
2023/05/29 02:06:52;;;;;;;2.70;2.50;;;;;;;16.34;42.14;99901.89;104421;1257;69976;-58
2023/05/29 02:09:22;;;;;;;3.60;2.80;;;;;;;16.31;42.01;99904.41;104321;1275;72391;-58
2023/05/29 02:11:50;;;;;;;4.40;2.40;;;;;;;16.31;42.03;99905.23;104284;1255;60650;-58
2023/05/29 02:14:18;;;;;;;3.90;2.70;;;;;;;16.35;41.94;99908.02;104426;1260;60530;-58
2023/05/29 02:16:46;;;;;;;;;;;;;;;16.37;41.84;99910.36;104397;1264;73526;-58
2023/05/29 02:19:14;;;;;;;;;;;;;;;16.38;42.30;99910.31;104371;1257;70030;-58
2023/05/29 02:21:41;;;;;;;;;;;;;;;16.37;42.44;99910.39;104263;1259;72927;-58
2023/05/29 02:24:09;;;;;;;2.20;2.00;;;;;;;16.36;42.38;99912.57;104377;1259;60981;-58
2023/05/29 02:26:37;;;;;;;3.00;2.70;;;;;;;16.32;42.59;99912.61;104366;1258;60351;-58
2023/05/29 02:29:05;;;;;;;;;;;;;;;16.32;42.15;99913.16;104318;1255;73597;-58
2023/05/29 02:31:33;;;;;;;2.60;2.40;;;;;;;16.35;42.43;99909.96;104323;1264;70099;-58
2023/05/29 02:34:00;;;;;;;3.20;2.20;;;;;;;16.33;42.11;99907.59;108304;1254;72463;-59
2023/05/29 02:36:28;;;;;;;3.00;2.50;;;;;;;16.35;42.14;99905.73;106932;1254;61430;-58
2023/05/29 02:38:57;;;;;;;3.20;2.20;;;;;;;16.34;42.40;99909.83;105089;1254;60559;-58
2023/05/29 02:41:26;;;;;;;2.80;2.50;;;;;;;16.36;42.64;99907.59;104348;1266;74992;-58
2023/05/29 02:43:53;;;;;;;2.90;2.70;;;;;;;16.35;42.48;99904.17;104755;1255;68845;-58
2023/05/29 02:46:21;;;;;;;3.20;2.50;;;;;;;16.34;42.42;99899.98;104345;1254;72369;-58
2023/05/29 02:48:50;;;;;;;2.70;2.40;;;;;;;16.37;42.34;99900.84;104381;1254;60036;-58
2023/05/29 02:51:17;;;;;;;2.70;2.40;;;;;;;16.43;42.29;99897.10;104288;1254;60908;-58
2023/05/29 02:53:45;;;;;;;3.30;2.20;;;;;;;16.48;42.30;99896.08;104414;1267;73649;-58
2023/05/29 02:56:12;;;;;;;3.10;2.40;;;;;;;16.48;42.28;99893.95;104380;1254;69647;-60
2023/05/29 02:58:40;;;;;;;2.40;2.20;;;;;;;16.51;42.24;99896.05;104405;1254;73241;-58
2023/05/29 03:01:08;;;;;;;3.20;2.80;;;;;;;16.52;42.43;99897.09;104315;1256;60639;-58
2023/05/29 03:03:36;;;;;;;3.20;2.20;;;;;;;16.59;42.15;99891.14;104390;1259;60578;-58
2023/05/29 03:06:06;;;;;;;3.20;2.50;;;;;;;16.65;42.18;99888.98;104335;1254;73999;-59
2023/05/29 03:08:35;;;;;;;2.40;2.20;;;;;;;16.61;42.15;99892.27;104420;1258;68608;-60
2023/05/29 03:11:03;;;;;;;2.70;2.50;;;;;;;16.67;42.12;99896.98;104295;1257;72082;-60
2023/05/29 03:13:34;;;;;;;3.90;2.50;;;;;;;16.77;41.79;99891.21;104348;1260;60168;-60
2023/05/29 03:16:04;;;;;;;3.30;2.50;;;;;;;16.77;42.12;99894.06;104446;1257;59733;-60
2023/05/29 03:18:32;;;;;;;2.20;2.00;;;;;;;16.98;42.43;99897.65;104433;1253;74567;-60
2023/05/29 03:21:00;;;;;;;;;;;;;;;17.08;42.07;99900.17;104320;1260;70168;-60
2023/05/29 03:23:28;;;;;;;2.20;2.00;;;;;;;17.14;42.36;99897.71;104405;1256;72431;-61
2023/05/29 03:25:56;;;;;;;2.30;2.00;;;;;;;17.21;41.97;99897.63;104389;1253;60638;-61
2023/05/29 03:28:24;;;;;;;;;;;;;;;17.23;42.13;99897.25;104511;1251;60630;-60
2023/05/29 03:30:52;;;;;;;2.40;2.20;;;;;;;17.31;42.12;99900.30;104195;1256;73734;-61
2023/05/29 03:33:21;;;;;;;2.40;2.20;;;;;;;17.35;42.11;99899.34;104391;1267;69194;-60
2023/05/29 03:35:58;;;;;;;2.50;2.00;;;;;;;17.45;42.05;99902.05;104396;1257;71201;-60
2023/05/29 03:38:26;;;;;;;3.80;2.20;;;;;;;17.53;41.63;99902.71;104373;1254;60558;-60
2023/05/29 03:40:55;;;;;;;2.90;2.50;;;;;;;17.60;41.65;99902.58;104205;1257;60456;-59
2023/05/29 03:43:23;;;;;;;;;;;;;;;17.66;41.56;99901.65;104368;1267;74050;-61
2023/05/29 03:45:51;;;;;;;2.40;2.20;;;;;;;17.78;41.54;99900.85;104328;1257;69032;-60
2023/05/29 03:48:18;;;;;;;2.20;2.10;;;;;;;17.84;41.30;99901.70;104340;1254;73070;-60
2023/05/29 03:50:47;;;;;;;5.20;1.90;;;;;;;17.93;41.15;99906.02;108222;1254;59723;-60
2023/05/29 03:53:18;;;;;;;3.40;2.00;;;;;;;18.05;41.29;99903.25;105926;1252;60441;-60
2023/05/29 03:55:46;;;;;;;2.70;2.00;;;;;;;18.13;40.88;99904.30;104610;1254;73701;-60
2023/05/29 03:58:14;;;;;;;2.40;2.20;;;;;;;18.21;40.84;99906.26;104643;1258;69850;-60
2023/05/29 04:00:41;;;;;;;;;;;;;;;18.30;40.67;99908.23;104452;1256;73256;-61
2023/05/29 04:03:09;;;;;;;;;;;;;;;18.41;40.66;99907.33;104823;1254;60811;-60
2023/05/29 04:05:37;;;;;;;2.40;1.80;;;;;;;18.47;40.53;99903.86;104720;1255;60856;-60
2023/05/29 04:08:05;;;;;;;2.10;1.80;;;;;;;18.52;40.65;99904.41;104403;1254;74470;-60
2023/05/29 04:10:43;;;;;;;2.40;2.00;;;;;;;18.61;40.72;99906.42;104377;1267;68155;-60
2023/05/29 04:13:11;;;;;;;2.20;2.00;;;;;;;18.68;40.64;99906.79;108403;1251;72902;-61
2023/05/29 04:15:39;;;;;;;3.00;1.80;;;;;;;18.76;40.63;99908.52;108418;1251;60026;-61
2023/05/29 04:18:06;;;;;;;4.70;2.00;;;;;;;18.87;40.82;99910.10;108590;1252;59876;-61
2023/05/29 04:20:34;;;;;;;1.70;1.60;;;;;;;18.98;40.93;99916.35;108429;1251;73636;-61
2023/05/29 04:23:03;;;;;;;3.00;1.90;;;;;;;19.09;40.93;99916.27;108464;1251;70070;-59
2023/05/29 04:25:32;;;;;;;2.40;2.20;;;;;;;19.20;40.91;99920.43;108484;1253;72892;-59
2023/05/29 04:28:02;;;;;;;2.20;2.10;;;;;;;19.34;40.92;99916.91;108484;1251;60505;-58
2023/05/29 04:30:30;;;;;;;2.50;1.80;;;;;;;19.49;40.75;99916.30;108478;1251;59906;-58
2023/05/29 04:32:59;;;;;;;3.70;2.40;;;;;;;19.61;40.62;99913.46;108615;1251;74455;-59
2023/05/29 04:35:30;;;;;;;2.80;1.90;;;;;;;19.74;40.53;99909.98;108413;1251;69207;-59
2023/05/29 04:38:00;;;;;;;2.70;2.00;;;;;;;19.88;40.66;99911.44;108053;1251;325175;-59
2023/05/29 04:41:17;;;;;;;5.30;1.90;;;;;;;19.22;43.49;99916.38;101484;1295;601445;-60
2023/05/29 04:43:45;;;;;;;;;;;;;;;20.23;40.63;99908.55;103820;1270;60274;-59
2023/05/29 04:46:15;;;;;;;2.30;1.80;;;;;;;20.38;39.99;99909.09;103879;1265;59830;-58
2023/05/29 04:48:43;;;;;;;3.10;1.70;;;;;;;20.45;39.92;99916.05;103614;1267;71980;-58
2023/05/29 04:51:11;;;;;;;2.40;2.20;;;;;;;20.54;40.13;99913.54;103499;1274;69707;-58
2023/05/29 04:53:42;;;;;;;2.20;2.00;;;;;;;20.63;40.54;99912.11;103578;1281;72774;-58
2023/05/29 04:56:10;;;;;;;3.60;2.40;;;;;;;20.74;40.54;99911.60;103863;1264;60500;-58
2023/05/29 04:58:38;;;;;;;4.80;2.40;;;;;;;20.84;40.07;99910.42;103870;1270;59835;-59
2023/05/29 05:01:08;;;;;;;2.40;2.20;;;;;;;20.94;39.93;99909.81;104236;1257;71824;-58
2023/05/29 05:03:37;;;;;;;4.60;2.00;;;;;;;21.05;40.03;99906.42;104261;1258;69223;-58
2023/05/29 05:06:07;;;;;;;3.40;1.70;;;;;;;21.13;39.57;99905.21;104139;1263;73291;-58
2023/05/29 05:08:36;;;;;;;2.00;1.70;;;;;;;21.24;39.36;99905.16;104193;1259;59776;-58
2023/05/29 05:11:04;;;;;;;;;;;;;;;21.34;39.55;99899.31;104068;1259;59775;-59
2023/05/29 05:13:32;;;;;;;4.50;1.70;;;;;;;21.46;39.12;99897.52;104018;1262;72840;-58
2023/05/29 05:16:01;;;;;;;;;;;;;;;21.51;38.49;99896.04;104167;1262;68139;-57
2023/05/29 05:18:29;;;;;;;2.00;1.60;;;;;;;21.67;38.69;99896.28;104085;1269;73409;-59
2023/05/29 05:21:04;;;;;;;6.70;1.60;;;;;;;21.76;38.43;99898.32;104151;1261;59757;-57
2023/05/29 05:23:33;;;;;;;1.40;1.30;;;;;;;21.88;38.29;99898.45;104283;1260;59861;-58
2023/05/29 05:26:20;;;;;;;2.70;1.60;;;;;;;22.01;37.62;99898.56;104188;1258;73253;-58
2023/05/29 05:28:47;;;;;;;;;;;;;;;22.12;37.48;99898.80;104354;1268;69567;-59
2023/05/29 05:31:15;;;;;;;5.80;1.80;;;;;;;22.27;37.26;99897.00;104173;1257;72935;-57
2023/05/29 05:33:44;;;;;;;1.70;1.50;;;;;;;22.34;37.13;99897.34;104237;1257;59914;-58
2023/05/29 05:36:12;;;;;;;1.40;1.30;;;;;;;22.42;36.42;99895.34;104472;1256;60063;-59
2023/05/29 05:38:40;;;;;;;;;;;;;;;22.48;36.22;99902.48;104343;1264;73681;-59
2023/05/29 05:41:07;;;;;;;0.90;0.80;;;;;;;22.62;35.51;99903.10;104609;1258;69126;-60
2023/05/29 05:43:35;;;;;;;1.30;1.10;;;;;;;22.68;35.46;99909.50;104348;1257;72615;-59
2023/05/29 05:46:26;;;;;;;1.10;1.00;;;;;;;22.82;34.74;99914.66;104352;1259;59754;-59
2023/05/29 05:48:58;;;;;;;1.30;1.20;;;;;;;22.88;35.01;99914.82;104227;1258;59733;-60
2023/05/29 05:51:26;;;;;;;1.40;1.10;;;;;;;22.97;35.15;99915.29;107639;1255;72825;-60
2023/05/29 05:53:54;;;;;;;1.90;1.20;;;;;;;23.11;34.53;99918.13;106648;1256;69058;-61
2023/05/29 05:56:21;;;;;;;1.80;1.00;;;;;;;23.21;34.43;99918.30;104317;1257;71188;-61
2023/05/29 05:58:50;;;;;;;2.90;1.60;;;;;;;23.30;34.62;99916.23;105092;1257;59767;-61
2023/05/29 06:01:20;;;;;;;1.70;1.40;;;;;;;23.27;34.25;99923.27;104523;1257;60693;-60
2023/05/29 06:03:48;;;;;;;3.10;1.20;;;;;;;23.30;34.50;99921.60;104348;1261;72919;-60
2023/05/29 06:06:17;;;;;;;;;;;;;;;23.39;34.36;99917.17;104334;1260;70035;-60
2023/05/29 06:08:46;;;;;;;4.70;1.10;;;;;;;23.52;34.19;99915.48;104183;1276;73258;-59
2023/05/29 06:11:15;;;;;;;1.90;1.20;;;;;;;23.55;33.94;99913.95;104287;1260;60289;-59
2023/05/29 06:13:44;;;;;;;2.60;1.30;;;;;;;23.62;33.90;99916.85;104312;1256;59608;-60
2023/05/29 06:16:17;;;;;;;1.80;1.10;;;;;;;23.72;34.12;99917.91;104015;1264;72162;-59
2023/05/29 06:18:45;;;;;;;1.50;1.40;;;;;;;23.84;33.93;99921.50;104123;1260;69459;-59
2023/05/29 06:21:13;;;;;;;2.80;1.40;;;;;;;23.92;33.14;99920.16;104177;1268;73348;-59
2023/05/29 06:23:47;;;;;;;1.50;1.40;;;;;;;23.94;32.87;99914.79;104118;1256;59752;-60
2023/05/29 06:26:16;;;;;;;1.90;1.40;;;;;;;23.97;33.26;99912.77;104168;1264;61657;-60
2023/05/29 06:28:44;;;;;;;1.70;1.30;;;;;;;24.06;33.47;99909.16;107245;1256;71943;-59
2023/05/29 06:31:13;;;;;;;3.90;1.50;;;;;;;24.19;33.07;99908.89;106963;1257;69089;-60
2023/05/29 06:33:40;;;;;;;;;;;;;;;24.24;33.15;99905.14;104414;1262;72732;-59
2023/05/29 06:36:09;;;;;;;3.60;1.20;;;;;;;24.35;33.15;99907.13;104089;1260;60195;-60
2023/05/29 06:38:37;;;;;;;;;;;;;;;24.34;33.15;99900.64;104148;1256;59701;-59
2023/05/29 06:41:05;;;;;;;1.80;1.20;;;;;;;24.46;33.35;99903.51;104189;1258;73372;-59
2023/05/29 06:43:33;;;;;;;3.60;1.40;;;;;;;24.52;32.98;99905.00;104116;1257;69133;-59
2023/05/29 06:46:03;;;;;;;2.70;1.00;;;;;;;24.58;32.69;99901.36;104204;1256;73324;-59
2023/05/29 06:48:35;;;;;;;1.50;1.30;;;;;;;24.61;32.55;99897.48;104036;1258;60721;-58
2023/05/29 06:51:11;;;;;;;1.40;1.30;;;;;;;24.69;32.59;99899.40;105692;1256;59727;-59
2023/05/29 06:53:55;;;;;;;1.80;1.20;;;;;;;24.85;32.54;99898.54;107721;1255;72813;-60
2023/05/29 06:56:23;;;;;;;1.40;1.00;;;;;;;24.95;32.71;99899.73;104498;1257;69453;-60
2023/05/29 06:58:52;;;;;;;1.70;1.30;;;;;;;25.03;32.34;99894.66;104432;1258;72437;-59
2023/05/29 07:01:58;;;;;;;1.70;1.20;;;;;;;25.07;32.08;99895.64;104556;1256;60786;-60
2023/05/29 07:04:26;;;;;;;1.10;1.00;;;;;;;25.11;31.36;99893.13;104545;1263;60059;-60
2023/05/29 07:06:53;;;;;;;1.40;1.20;;;;;;;25.14;32.24;99888.84;104393;1261;72365;-61
2023/05/29 07:09:21;;;;;;;1.10;1.00;;;;;;;25.25;31.77;99886.17;104598;1259;70047;-62
2023/05/29 07:11:49;;;;;;;;;;;;;;;25.38;30.90;99881.46;104078;1254;72457;-60
2023/05/29 07:14:17;;;;;;;;;;;;;;;25.52;29.78;99880.59;104377;1255;59829;-59
2023/05/29 07:16:45;;;;;;;1.50;0.90;;;;;;;25.59;30.06;99876.74;104348;1254;59772;-59
2023/05/29 07:19:13;;;;;;;0.70;0.70;;;;;;;25.61;30.30;99875.58;104346;1260;72886;-59
2023/05/29 07:21:48;;;;;;;1.20;1.00;;;;;;;25.74;30.62;99882.44;108350;1253;70245;-60
2023/05/29 07:24:17;;;;;;;1.20;1.00;;;;;;;25.88;30.71;99878.20;108078;1256;72370;-60
2023/05/29 07:26:45;;;;;;;3.30;1.20;;;;;;;25.97;30.38;99878.89;108184;1253;59804;-60
2023/05/29 07:29:14;;;;;;;1.60;0.90;;;;;;;26.08;29.95;99883.65;108132;1254;59738;-60
2023/05/29 07:31:42;;;;;;;0.80;0.80;;;;;;;26.14;28.68;99884.69;108003;1254;72834;-60
2023/05/29 07:34:10;;;;;;;1.90;1.60;;;;;;;26.14;29.18;99879.98;108114;1254;69249;-62
2023/05/29 07:37:02;;;;;;;2.10;1.00;;;;;;;26.15;29.34;99883.59;107997;1256;73783;-60
2023/05/29 07:39:31;;;;;;;2.80;1.00;;;;;;;26.18;28.85;99879.93;107900;1256;58938;-59
2023/05/29 07:42:01;;;;;;;1.30;1.00;;;;;;;26.30;28.73;99885.27;107967;1253;61402;-60
2023/05/29 07:44:29;;;;;;;1.40;1.20;;;;;;;26.31;27.29;99883.76;108200;1253;72868;-60
2023/05/29 07:46:57;;;;;;;1.40;1.00;;;;;;;26.34;28.63;99885.37;107866;1257;69202;-60
2023/05/29 07:49:43;;;;;;;2.40;1.10;;;;;;;26.45;28.88;99886.55;107913;1255;71187;-60
2023/05/29 07:52:11;;;;;;;1.00;0.90;;;;;;;26.60;28.43;99884.16;107951;1253;59807;-59
2023/05/29 07:54:39;;;;;;;1.30;1.00;;;;;;;26.68;28.29;99887.41;107760;1253;59705;-60
2023/05/29 07:57:09;;;;;;;2.60;1.30;;;;;;;26.77;27.82;99893.67;107772;1253;73482;-60
2023/05/29 07:59:42;;;;;;;1.70;1.20;;;;;;;26.81;27.17;99885.83;107757;1256;69547;-60
2023/05/29 08:02:10;;;;;;;2.10;1.30;;;;;;;26.84;26.55;99881.81;107679;1256;72961;-61
2023/05/29 08:05:13;;;;;;;0.90;0.90;;;;;;;26.83;26.40;99879.73;107297;1259;60151;-60
2023/05/29 08:07:42;;;;;;;3.50;1.10;;;;;;;26.87;27.88;99879.30;107828;1253;59775;-60
2023/05/29 08:10:10;;;;;;;0.90;0.90;;;;;;;26.95;27.29;99874.66;108075;1254;73211;-60
2023/05/29 08:12:38;;;;;;;2.30;1.00;;;;;;;26.94;27.66;99870.21;107968;1255;69029;-60
2023/05/29 08:15:07;;;;;;;5.10;1.20;;;;;;;27.03;27.75;99872.68;107893;1253;72499;-60
2023/05/29 08:17:37;;;;;;;0.90;0.90;;;;;;;27.13;26.33;99871.78;108400;1251;59860;-61
2023/05/29 08:20:05;;;;;;;;;;;;;;;27.13;26.60;99869.61;108520;1251;60695;-61
2023/05/29 08:25:49;;;;;;;1.50;1.00;;;;;;;27.26;26.05;99864.45;101664;1292;601575;-60
2023/05/29 08:28:17;;;;;;;;;;;;;;;27.30;26.35;99858.31;103718;1267;60706;-62
2023/05/29 08:30:45;;;;;;;1.20;1.00;;;;;;;27.41;26.11;99857.98;103787;1265;60855;-60
2023/05/29 08:33:13;;;;;;;2.00;1.10;;;;;;;27.48;26.77;99861.65;103782;1265;71856;-61
2023/05/29 08:35:40;;;;;;;;;;;;;;;27.59;26.94;99864.08;103876;1265;69169;-60
2023/05/29 08:38:08;;;;;;;3.50;1.10;;;;;;;27.71;26.26;99864.88;103877;1267;72412;-60
2023/05/29 08:40:36;;;;;;;1.20;1.00;;;;;;;27.73;25.52;99862.91;103845;1267;346183;-61
2023/05/29 08:43:16;;;;;;;1.60;0.80;;;;;;;27.69;25.07;99857.02;105831;1265;59684;-64
2023/05/29 08:45:43;;;;;;;2.10;1.20;;;;;;;27.73;26.16;99852.80;107172;1262;72694;-61
2023/05/29 08:48:11;;;;;;;1.40;1.10;;;;;;;27.81;25.93;99851.79;104245;1272;69057;-61
2023/05/29 08:50:41;;;;;;;;;;;;;;;27.95;26.64;99853.39;105114;1264;72570;-61
2023/05/29 08:53:10;;;;;;;2.70;1.30;;;;;;;28.12;25.10;99850.98;103991;1263;60766;-60
2023/05/29 08:55:37;;;;;;;1.70;1.20;;;;;;;28.12;25.73;99845.03;104028;1264;59796;-61
2023/05/29 08:58:05;;;;;;;5.70;1.40;;;;;;;28.14;25.32;99844.33;104152;1269;73729;-60
2023/05/29 09:00:33;;;;;;;1.70;1.20;;;;;;;28.17;25.49;99841.54;104119;1264;69174;-60
2023/05/29 09:03:01;;;;;;;2.10;1.10;;;;;;;28.20;25.51;99842.09;104353;1265;73403;-61
2023/05/29 09:05:29;;;;;;;6.10;1.20;;;;;;;28.21;25.31;99839.56;103989;1267;61373;-61
2023/05/29 09:07:57;;;;;;;1.40;1.10;;;;;;;28.12;25.00;99831.66;104112;1269;60390;-61
2023/05/29 09:10:27;;;;;;;1.20;1.10;;;;;;;28.10;25.17;99831.73;104051;1268;73212;-62
2023/05/29 09:12:55;;;;;;;2.40;1.30;;;;;;;28.14;24.94;99827.48;104050;1268;69619;-60
2023/05/29 09:15:23;;;;;;;1.10;1.00;;;;;;;28.17;24.78;99830.38;103751;1270;72381;-59
2023/05/29 09:17:57;;;;;;;1.00;0.90;;;;;;;28.22;25.00;99831.61;103989;1264;60799;-59
2023/05/29 09:20:25;;;;;;;2.60;1.10;;;;;;;28.20;25.07;99826.42;104205;1270;62520;-60
2023/05/29 09:23:00;;;;;;;2.40;1.20;;;;;;;28.20;24.67;99821.09;104077;1265;73236;-62
2023/05/29 09:25:30;;;;;;;1.10;1.00;;;;;;;28.27;24.96;99817.39;104223;1268;70283;-62
2023/05/29 09:28:07;;;;;;;1.10;0.90;;;;;;;28.37;25.37;99818.27;103994;1264;71567;-59
2023/05/29 09:34:04;;;;;;;2.00;1.10;;;;;;;28.62;24.88;99812.52;104130;1265;60010;-60
2023/05/29 09:36:32;;;;;;;1.30;1.10;;;;;;;28.69;24.67;99810.55;103827;1264;72924;-61
2023/05/29 09:39:03;;;;;;;1.80;1.10;;;;;;;28.74;24.26;99809.45;104461;1259;69416;-60
2023/05/29 09:41:48;;;;;;;0.80;0.80;;;;;;;28.53;23.09;99800.85;104219;1260;72283;-60
2023/05/29 09:44:15;;;;;;;2.70;0.90;;;;;;;28.57;24.17;99795.02;104241;1259;60620;-60
2023/05/29 09:46:45;;;;;;;1.60;1.30;;;;;;;28.62;24.42;99792.93;104741;1256;60739;-61
2023/05/29 09:49:16;;;;;;;1.70;1.00;;;;;;;28.73;24.45;99783.98;104148;1261;73722;-60
2023/05/29 09:51:47;;;;;;;2.00;1.10;;;;;;;28.75;24.39;99782.30;104574;1257;69623;-61
2023/05/29 09:54:15;;;;;;;1.80;1.50;;;;;;;28.69;24.43;99780.20;107570;1256;73479;-62
2023/05/29 09:56:44;;;;;;;0.90;0.90;;;;;;;28.74;24.75;99780.27;106676;1256;60318;-61
2023/05/29 09:59:12;;;;;;;1.10;0.90;;;;;;;28.94;24.51;99776.84;104223;1261;59737;-60
2023/05/29 10:01:46;;;;;;;2.30;1.00;;;;;;;29.05;24.12;99775.90;104650;1269;72833;-61
2023/05/29 10:04:19;;;;;;;1.10;0.90;;;;;;;28.98;23.80;99772.70;105282;1259;70179;-60
2023/05/29 10:06:52;;;;;;;2.40;1.00;;;;;;;28.95;23.85;99771.31;104387;1265;72911;-62
2023/05/29 10:09:22;;;;;;;2.50;1.10;;;;;;;28.96;24.31;99778.42;104184;1265;59836;-64
2023/05/29 10:11:50;;;;;;;1.40;1.20;;;;;;;29.05;23.77;99780.04;104245;1262;60072;-62
2023/05/29 10:14:19;;;;;;;4.10;1.00;;;;;;;29.29;23.06;99778.46;104338;1257;72537;-62
2023/05/29 10:16:47;;;;;;;8.40;1.60;;;;;;;29.19;22.97;99771.51;104186;1259;69667;-61
2023/05/29 10:19:18;;;;;;;24.70;4.10;;;;;;;29.26;23.43;99772.15;104165;1257;72507;-60
2023/05/29 10:21:47;;;;;;;12.30;3.70;;;;;;;29.47;22.99;99766.19;104102;1260;59829;-62
2023/05/29 10:24:15;;;;;;;7.20;2.40;;;;;;;29.47;22.73;99765.86;104031;1256;61463;-61
2023/05/29 10:26:43;;;;;;;3.60;1.60;;;;;;;29.54;23.15;99763.13;104198;1256;73530;-61
2023/05/29 10:29:21;;;;;;;3.50;1.10;;;;;;;29.67;23.05;99762.53;104625;1256;69294;-60
2023/05/29 10:31:58;;;;;;;0.90;0.70;;;;;;;29.75;22.79;99764.95;104562;1256;72522;-61
2023/05/29 10:34:41;;;;;;;1.50;0.90;;;;;;;29.85;22.97;99763.02;104342;1256;60132;-61
2023/05/29 10:37:31;;;;;;;0.80;0.80;;;;;;;29.97;23.00;99761.75;104216;1261;59828;-59
2023/05/29 10:40:07;;;;;;;1.00;0.90;;;;;;;30.05;22.52;99758.09;104035;1262;72741;-60
2023/05/29 10:42:45;;;;;;;2.20;1.10;;;;;;;29.93;22.40;99756.23;104277;1261;69163;-60
2023/05/29 10:45:29;;;;;;;2.50;0.80;;;;;;;29.86;22.40;99760.27;104331;1256;72916;-60
2023/05/29 10:48:06;;;;;;;0.90;0.80;;;;;;;29.85;22.55;99766.13;107798;1256;60174;-61
2023/05/29 10:50:35;;;;;;;0.90;0.80;;;;;;;30.07;21.95;99765.96;107898;1255;59705;-60
2023/05/29 10:53:03;;;;;;;1.00;0.80;;;;;;;30.08;22.19;99758.75;107963;1256;72856;-63
2023/05/29 10:55:37;;;;;;;;;;;;;;;29.95;21.84;99758.71;108114;1256;69597;-60
2023/05/29 10:58:05;;;;;;;0.80;0.80;;;;;;;29.69;22.39;99756.48;107908;1255;72295;-63
2023/05/29 11:00:33;;;;;;;2.90;0.90;;;;;;;29.63;22.32;99752.22;107941;1255;59865;-62
2023/05/29 11:03:03;;;;;;;;;;;;;;;29.75;22.53;99749.45;107953;1255;59740;-63
2023/05/29 11:05:32;;;;;;;3.00;0.90;;;;;;;29.91;22.85;99753.79;107821;1255;72815;-66
2023/05/29 11:08:00;;;;;;;;;;;;;;;29.99;23.07;99744.46;107972;1256;69220;-62
2023/05/29 11:10:52;;;;;;;0.90;0.90;;;;;;;30.16;22.97;99744.38;107965;1254;73368;-62
2023/05/29 11:13:30;;;;;;;0.90;0.80;;;;;;;30.26;21.86;99739.38;107999;1256;60157;-62
2023/05/29 11:16:19;;;;;;;0.80;0.80;;;;;;;30.36;22.46;99741.95;108088;1255;60243;-62
2023/05/29 11:18:48;;;;;;;1.10;0.90;;;;;;;30.49;22.31;99737.77;108143;1256;73282;-61
2023/05/29 11:21:54;;;;;;;2.20;0.90;;;;;;;30.52;22.68;99734.83;107963;1256;68178;-63
2023/05/29 11:24:23;;;;;;;0.90;0.80;;;;;;;30.55;22.46;99734.90;107895;1255;73190;-65
2023/05/29 11:26:55;;;;;;;0.70;0.60;;;;;;;30.57;22.10;99731.08;107921;1256;61481;-64
2023/05/29 11:29:23;;;;;;;0.80;0.80;;;;;;;30.62;22.21;99724.20;107969;1256;60090;-62
2023/05/29 11:32:12;;;;;;;2.30;0.80;;;;;;;30.70;22.61;99724.48;107989;1255;73077;-62
2023/05/29 11:34:41;;;;;;;5.70;0.70;;;;;;;30.95;21.26;99723.17;107919;1256;69277;-63
2023/05/29 11:37:09;;;;;;;1.70;0.90;;;;;;;31.07;21.55;99720.06;107881;1256;71410;-65
2023/05/29 11:39:37;;;;;;;2.60;1.00;;;;;;;30.91;21.07;99722.81;107881;1256;59220;-63
2023/05/29 11:42:06;;;;;;;0.90;0.80;;;;;;;30.90;21.47;99722.84;108089;1255;59607;-63
2023/05/29 11:44:34;;;;;;;1.30;0.90;;;;;;;30.99;21.43;99720.79;108006;1255;73547;-64
2023/05/29 11:47:03;;;;;;;1.30;0.70;;;;;;;31.06;21.19;99720.39;107987;1255;70121;-63
2023/05/29 11:49:33;;;;;;;1.10;0.90;;;;;;;31.07;21.21;99718.19;107976;1256;72949;-64
2023/05/29 11:52:07;;;;;;;1.20;0.90;;;;;;;31.08;21.54;99712.13;108113;1255;60301;-64
2023/05/29 11:54:46;;;;;;;2.50;0.90;;;;;;;31.11;22.11;99708.06;107862;1255;59818;-64
2023/05/29 11:57:19;;;;;;;1.90;0.90;;;;;;;31.19;22.02;99706.90;107841;1256;73698;-62
2023/05/29 11:59:49;;;;;;;1.50;1.00;;;;;;;31.25;21.29;99703.65;107840;1256;69602;-63
2023/05/29 12:02:16;;;;;;;2.60;1.10;;;;;;;31.29;21.99;99703.47;107635;1256;72266;-62